Terminal Aerodrome Forecast
Issued by NWS Grand Forks, ND

Home | Current Version | Previous Version | Text Only | Print | Product List | Glossary Off
Versions: 1 2 3 4 5 6 7 8 9 10 11 12 13 14 15 16 17 18 19 20 21 22 23

000
FTUS43 KFGF 201100
TAFGFK
TAF
KGFK 201140Z 2012/2112 25007KT P6SM SCT008
      TEMPO 2012/2015 BKN008
     FM201500 25008KT P6SM BKN250
     FM201900 30015G30KT P6SM -TSRA BKN050CB
     FM202100 32015G25KT P6SM BKN080
     FM210100 32008KT P6SM SCT080=

USA.gov is the U.S. government's official web portal to all federal, state and local government web resources and services.